Grande Italia — IBTF — position and weather

sailwx.info

Track history (hours):
 
Tides and Currents Weather Stations Pressure Air Temp Water Temp Dewpoint Dewpoint Depression Visibility Wind Speed Wind Dir Waves Ship Positions

Grande Italia

Last reported at 2014-Jul-22 19:33 UTC. Time now 2014-Jul-22 19:36 UTC.
Position N 39°40' E 025°46'.

Length 177 m; draft 8 m.

Type: Cargo ship. MMSI: 247039300.

Date/timePositionNaut miles runAvg speedWind from/ knotsBaromVisibWave heightAir tempDewpointWater temp
2014-Jul-22 19:33N 39°40' E 025°46'2017.7
2014-Jul-22 18:26N 39°23' E 025°34'3317.6
2014-Jul-22 16:33N 38°53' E 025°14'1817.6
2014-Jul-22 15:33N 38°37' E 025°04'1717.4
2014-Jul-22 14:33N 38°22' E 024°55'3817.9
2014-Jul-22 12:25N 37°47' E 024°34'1518.0
2014-Jul-22 11:33N 37°33' E 024°26'1817.6
2014-Jul-22 10:33N 37°19' E 024°12'1616.1
2014-Jul-22 09:32N 37°06' E 023°59'1717.2
2014-Jul-22 08:33N 36°53' E 023°46'2117.3
2014-Jul-22 07:19N 36°36' E 023°30'1317.2
2014-Jul-22 06:32N 36°26' E 023°20'1716.6
2014-Jul-22 05:30N 36°24' E 022°58'2117.6
2014-Jul-22 04:20N 36°21' E 022°33'32717.4
2014-Jul-21 09:33N 37°49' E 015°59'1915.7
2014-Jul-21 08:22N 37°55' E 015°37'1315.2
2014-Jul-21 07:31N 38°08' E 015°35'1414.5
2014-Jul-21 06:33N 38°22' E 015°39'2115.3
2014-Jul-21 05:12N 38°41' E 015°30'2515.3
2014-Jul-21 03:33N 39°04' E 015°18'1515.2
2014-Jul-21 02:33N 39°19' E 015°11'3715.1
2014-Jul-21 00:04N 39°54' E 014°54'815.1
2014-Jul-20 23:33N 40°01' E 014°51'1514.9
2014-Jul-20 22:33N 40°15' E 014°44'1514.9
2014-Jul-20 21:33N 40°30' E 014°44'10 1.4
2014-Jul-20 14:31N 40°40' E 014°45'9 3.1
2014-Jul-20 11:33N 40°35' E 014°35'1717.5
2014-Jul-20 10:34N 40°30' E 014°13'1717.2
2014-Jul-20 09:34N 40°37' E 013°52'1817.7
2014-Jul-20 08:34N 40°49' E 013°35'1817.8
2014-Jul-20 07:33N 40°60' E 013°17'1817.8
2014-Jul-20 06:34N 41°10' E 012°57'7917.5
2014-Jul-20 02:03N 42°04' E 011°40'10 1.5
2014-Jul-19 19:27N 42°05' E 011°27'1617.6
2014-Jul-19 18:33N 42°08' E 011°06'2017.2
2014-Jul-19 17:25N 42°18' E 010°44'1617.9
2014-Jul-19 16:33N 42°28' E 010°28'1817.8
2014-Jul-19 15:33N 42°39' E 010°09'1515.2
2014-Jul-19 14:34N 42°54' E 010°03'1818.3
2014-Jul-19 13:34N 43°12' E 010°07'1817.9
2014-Jul-19 12:34N 43°29' E 010°12'7 7.4
2014-Jul-19 11:33N 43°35' E 010°19'0 0.0
2014-Jul-19 10:33N 43°35' E 010°19'0 0.0
2014-Jul-19 09:33N 43°35' E 010°19'0 0.0
2014-Jul-19 08:33N 43°35' E 010°19'0 0.0
2014-Jul-19 07:33N 43°35' E 010°19'0 0.0
2014-Jul-19 06:33N 43°35' E 010°19'0 0.0
2014-Jul-19 05:33N 43°35' E 010°19'0 0.0
2014-Jul-19 04:33N 43°35' E 010°19'3 3.2
2014-Jul-19 03:33N 43°32' E 010°17'7 7.4
2014-Jul-19 02:33N 43°27' E 010°10'1514.6
2014-Jul-19 01:34N 43°17' E 009°54'1515.5
2014-Jul-19 00:34N 43°15' E 009°33'1515.1
2014-Jul-18 23:33N 43°13' E 009°13'1615.7
2014-Jul-18 22:33N 43°11' E 008°51'1615.5
2014-Jul-18 21:33N 43°08' E 008°30'1515.2
2014-Jul-18 20:33N 43°06' E 008°10'1514.8
2014-Jul-18 19:34N 43°04' E 007°50'1514.7
2014-Jul-18 18:34N 43°02' E 007°30'1515.0
2014-Jul-18 17:34N 43°00' E 007°09'1514.7
2014-Jul-18 16:33N 42°58' E 006°49'1414.2
2014-Jul-18 15:33N 42°56' E 006°30'1414.0
2014-Jul-18 14:33N 42°55' E 006°11'1414.5
2014-Jul-18 13:33N 42°56' E 005°51'1414.2
2014-Jul-18 12:33N 43°02' E 005°33'1514.5
2014-Jul-18 11:33N 43°07' E 005°15'1313.5
2014-Jul-18 10:34N 43°15' E 004°60'1111.0
2014-Jul-18 09:33N 43°24' E 004°51'0 0.4
2014-Jul-18 08:30N 43°24' E 004°51'0 0.0
2014-Jul-18 07:33N 43°24' E 004°51'0 0.0
2014-Jul-18 06:33N 43°24' E 004°51'0 0.0
2014-Jul-18 05:33N 43°24' E 004°51'0 0.0
2014-Jul-18 04:33N 43°24' E 004°51'0 0.0
2014-Jul-18 03:33N 43°24' E 004°51'6 6.3
2014-Jul-18 02:33N 43°21' E 004°58'1212.2
2014-Jul-18 01:33N 43°09' E 004°60'1515.4
2014-Jul-18 00:33N 42°58' E 004°45'1615.7
2014-Jul-17 23:33N 42°47' E 004°30'1615.6
2014-Jul-17 22:33N 42°36' E 004°15'1615.7
2014-Jul-17 21:33N 42°25' E 004°00'1515.4
2014-Jul-17 20:33N 42°14' E 003°46'1515.5
2014-Jul-17 19:33N 42°02' E 003°32'1615.9
2014-Jul-17 18:33N 41°50' E 003°17'1615.6
2014-Jul-17 17:33N 41°40' E 003°02'1616.2
2014-Jul-17 16:33N 41°29' E 002°45'1615.8
2014-Jul-17 15:33N 41°18' E 002°30'1515.4
2014-Jul-17 14:33N 41°09' E 002°14'1515.4
2014-Jul-17 13:33N 40°59' E 001°59'1615.5
2014-Jul-17 12:33N 40°48' E 001°44'1515.5
2014-Jul-17 11:33N 40°38' E 001°28'1515.5
2014-Jul-17 10:33N 40°28' E 001°13'1615.8
2014-Jul-17 09:33N 40°18' E 000°57'1717.4
2014-Jul-17 08:33N 40°06' E 000°40'1817.5
2014-Jul-17 07:33N 39°54' E 000°23'3517.5
2014-Jul-17 05:33N 39°30' W 000°10'8 7.6
2014-Jul-17 04:33N 39°27' W 000°18'0 0.0
2014-Jul-17 03:33N 39°27' W 000°18'0 0.0
2014-Jul-17 02:33N 39°27' W 000°18'0 0.0
2014-Jul-17 01:33N 39°27' W 000°18'0 0.0
2014-Jul-17 00:33N 39°27' W 000°18'0 0.1
2014-Jul-16 23:33N 39°26' W 000°18'5 5.1
2014-Jul-16 22:34N 39°23' W 000°14'3115.3
2014-Jul-16 20:30N 38°59' E 000°13'1815.1
2014-Jul-16 19:20N 38°46' E 000°28'1215.0
2014-Jul-16 18:33N 38°35' E 000°22'1515.3
2014-Jul-16 17:33N 38°22' E 000°11'1615.7
2014-Jul-16 16:30N 38°09' W 000°01'1515.4
2014-Jul-16 15:33N 37°56' W 000°11'2220.5
2014-Jul-16 14:29N 37°38' W 000°27'11314.2
2014-Jul-16 06:33N 36°23' W 002°12'1614.6
2014-Jul-16 05:27N 36°20' W 002°31'17916.5
2014-Jul-15 18:33N 35°54' W 006°11'1716.3
2014-Jul-15 17:32N 35°58' W 006°31'1515.4
2014-Jul-15 16:33N 36°02' W 006°49'1514.9
2014-Jul-15 15:33N 36°06' W 007°07'1515.3
2014-Jul-15 14:33N 36°10' W 007°25'1515.5
2014-Jul-15 13:33N 36°14' W 007°43'1615.7
2014-Jul-15 12:33N 36°18' W 008°02'1815.6
2014-Jul-15 11:24N 36°22' W 008°24'1415.9
2014-Jul-15 10:33N 36°26' W 008°40'1616.6
2014-Jul-15 09:34N 36°30' W 008°60'1815.5
2014-Jul-15 08:24N 36°36' W 009°21'1415.5
2014-Jul-15 07:28N 36°47' W 009°32'1914.9
2014-Jul-15 06:11N 37°07' W 009°35'1015.8
2014-Jul-15 05:33N 37°16' W 009°31'1615.7
2014-Jul-15 04:33N 37°31' W 009°24'1515.4
2014-Jul-15 03:33N 37°45' W 009°18'1515.0
2014-Jul-15 02:33N 37°59' W 009°12'1515.1
2014-Jul-15 01:33N 38°13' W 009°05'1414.1
2014-Jul-15 00:33N 38°27' W 008°59'6 6.3
2014-Jul-14 23:31N 38°31' W 008°52'0 0.0
2014-Jul-14 22:31N 38°31' W 008°52'0 0.0
2014-Jul-14 21:31N 38°31' W 008°52'0 0.0
2014-Jul-14 20:31N 38°31' W 008°52'0 0.0
2014-Jul-14 19:31N 38°31' W 008°52'0 0.0
2014-Jul-14 18:31N 38°31' W 008°52'0 0.0
2014-Jul-14 17:25N 38°31' W 008°52'0 0.0
2014-Jul-14 16:31N 38°31' W 008°52'0 0.0
2014-Jul-14 15:31N 38°31' W 008°52'3 3.1
2014-Jul-14 14:33N 38°30' W 008°56'1313.3
2014-Jul-14 13:33N 38°20' W 009°07'1514.8
2014-Jul-14 12:33N 38°17' W 009°25'1514.6
2014-Jul-14 11:33N 38°22' W 009°43'2114.4
2014-Jul-14 10:07N 38°34' W 010°04'5715.2
2014-Jul-14 06:22N 39°31' W 010°08'  
Track history (hours):
 
Tides and Currents Weather Stations Pressure Air Temp Water Temp Dewpoint Dewpoint Depression Visibility Wind Speed Wind Dir Waves Ship Positions

Grande Italia

Last reported at 2014-Jul-22 19:33 UTC. Time now 2014-Jul-22 19:36 UTC.
Position N 39°40' E 025°46'.

Length 177 m; draft 8 m.

Type: Cargo ship. MMSI: 247039300.

Date/timePositionNaut miles runAvg speedWind from/ knotsBaromVisibWave heightAir tempDewpointWater temp
2014-Jul-22 19:33N 39°40' E 025°46'2017.7
2014-Jul-22 18:26N 39°23' E 025°34'3317.6
2014-Jul-22 16:33N 38°53' E 025°14'1817.6
2014-Jul-22 15:33N 38°37' E 025°04'1717.4
2014-Jul-22 14:33N 38°22' E 024°55'3817.9
2014-Jul-22 12:25N 37°47' E 024°34'1518.0
2014-Jul-22 11:33N 37°33' E 024°26'1817.6
2014-Jul-22 10:33N 37°19' E 024°12'1616.1
2014-Jul-22 09:32N 37°06' E 023°59'1717.2
2014-Jul-22 08:33N 36°53' E 023°46'2117.3
2014-Jul-22 07:19N 36°36' E 023°30'1317.2
2014-Jul-22 06:32N 36°26' E 023°20'1716.6
2014-Jul-22 05:30N 36°24' E 022°58'2117.6
2014-Jul-22 04:20N 36°21' E 022°33'32717.4
2014-Jul-21 09:33N 37°49' E 015°59'1915.7
2014-Jul-21 08:22N 37°55' E 015°37'1315.2
2014-Jul-21 07:31N 38°08' E 015°35'1414.5
2014-Jul-21 06:33N 38°22' E 015°39'2115.3
2014-Jul-21 05:12N 38°41' E 015°30'2515.3
2014-Jul-21 03:33N 39°04' E 015°18'1515.2
2014-Jul-21 02:33N 39°19' E 015°11'3715.1
2014-Jul-21 00:04N 39°54' E 014°54'815.1
2014-Jul-20 23:33N 40°01' E 014°51'1514.9
2014-Jul-20 22:33N 40°15' E 014°44'1514.9
2014-Jul-20 21:33N 40°30' E 014°44'10 1.4
2014-Jul-20 14:31N 40°40' E 014°45'9 3.1
2014-Jul-20 11:33N 40°35' E 014°35'1717.5
2014-Jul-20 10:34N 40°30' E 014°13'1717.2
2014-Jul-20 09:34N 40°37' E 013°52'1817.7
2014-Jul-20 08:34N 40°49' E 013°35'1817.8
2014-Jul-20 07:33N 40°60' E 013°17'1817.8
2014-Jul-20 06:34N 41°10' E 012°57'7917.5
2014-Jul-20 02:03N 42°04' E 011°40'10 1.5
2014-Jul-19 19:27N 42°05' E 011°27'1617.6
2014-Jul-19 18:33N 42°08' E 011°06'2017.2
2014-Jul-19 17:25N 42°18' E 010°44'1617.9
2014-Jul-19 16:33N 42°28' E 010°28'1817.8
2014-Jul-19 15:33N 42°39' E 010°09'1515.2
2014-Jul-19 14:34N 42°54' E 010°03'1818.3
2014-Jul-19 13:34N 43°12' E 010°07'1817.9
2014-Jul-19 12:34N 43°29' E 010°12'7 7.4
2014-Jul-19 11:33N 43°35' E 010°19'0 0.0
2014-Jul-19 10:33N 43°35' E 010°19'0 0.0
2014-Jul-19 09:33N 43°35' E 010°19'0 0.0
2014-Jul-19 08:33N 43°35' E 010°19'0 0.0
2014-Jul-19 07:33N 43°35' E 010°19'0 0.0
2014-Jul-19 06:33N 43°35' E 010°19'0 0.0
2014-Jul-19 05:33N 43°35' E 010°19'0 0.0
2014-Jul-19 04:33N 43°35' E 010°19'3 3.2
2014-Jul-19 03:33N 43°32' E 010°17'7 7.4
2014-Jul-19 02:33N 43°27' E 010°10'1514.6
2014-Jul-19 01:34N 43°17' E 009°54'1515.5
2014-Jul-19 00:34N 43°15' E 009°33'1515.1
2014-Jul-18 23:33N 43°13' E 009°13'1615.7
2014-Jul-18 22:33N 43°11' E 008°51'1615.5
2014-Jul-18 21:33N 43°08' E 008°30'1515.2
2014-Jul-18 20:33N 43°06' E 008°10'1514.8
2014-Jul-18 19:34N 43°04' E 007°50'1514.7
2014-Jul-18 18:34N 43°02' E 007°30'1515.0
2014-Jul-18 17:34N 43°00' E 007°09'1514.7
2014-Jul-18 16:33N 42°58' E 006°49'1414.2
2014-Jul-18 15:33N 42°56' E 006°30'1414.0
2014-Jul-18 14:33N 42°55' E 006°11'1414.5
2014-Jul-18 13:33N 42°56' E 005°51'1414.2
2014-Jul-18 12:33N 43°02' E 005°33'1514.5
2014-Jul-18 11:33N 43°07' E 005°15'1313.5
2014-Jul-18 10:34N 43°15' E 004°60'1111.0
2014-Jul-18 09:33N 43°24' E 004°51'0 0.4
2014-Jul-18 08:30N 43°24' E 004°51'0 0.0
2014-Jul-18 07:33N 43°24' E 004°51'0 0.0
2014-Jul-18 06:33N 43°24' E 004°51'0 0.0
2014-Jul-18 05:33N 43°24' E 004°51'0 0.0
2014-Jul-18 04:33N 43°24' E 004°51'0 0.0
2014-Jul-18 03:33N 43°24' E 004°51'6 6.3
2014-Jul-18 02:33N 43°21' E 004°58'1212.2
2014-Jul-18 01:33N 43°09' E 004°60'1515.4
2014-Jul-18 00:33N 42°58' E 004°45'1615.7
2014-Jul-17 23:33N 42°47' E 004°30'1615.6
2014-Jul-17 22:33N 42°36' E 004°15'1615.7
2014-Jul-17 21:33N 42°25' E 004°00'1515.4
2014-Jul-17 20:33N 42°14' E 003°46'1515.5
2014-Jul-17 19:33N 42°02' E 003°32'1615.9
2014-Jul-17 18:33N 41°50' E 003°17'1615.6
2014-Jul-17 17:33N 41°40' E 003°02'1616.2
2014-Jul-17 16:33N 41°29' E 002°45'1615.8
2014-Jul-17 15:33N 41°18' E 002°30'1515.4
2014-Jul-17 14:33N 41°09' E 002°14'1515.4
2014-Jul-17 13:33N 40°59' E 001°59'1615.5
2014-Jul-17 12:33N 40°48' E 001°44'1515.5
2014-Jul-17 11:33N 40°38' E 001°28'1515.5
2014-Jul-17 10:33N 40°28' E 001°13'1615.8
2014-Jul-17 09:33N 40°18' E 000°57'1717.4
2014-Jul-17 08:33N 40°06' E 000°40'1817.5
2014-Jul-17 07:33N 39°54' E 000°23'3517.5
2014-Jul-17 05:33N 39°30' W 000°10'8 7.6
2014-Jul-17 04:33N 39°27' W 000°18'0 0.0
2014-Jul-17 03:33N 39°27' W 000°18'0 0.0
2014-Jul-17 02:33N 39°27' W 000°18'0 0.0
2014-Jul-17 01:33N 39°27' W 000°18'0 0.0
2014-Jul-17 00:33N 39°27' W 000°18'0 0.1
2014-Jul-16 23:33N 39°26' W 000°18'5 5.1
2014-Jul-16 22:34N 39°23' W 000°14'3115.3
2014-Jul-16 20:30N 38°59' E 000°13'1815.1
2014-Jul-16 19:20N 38°46' E 000°28'1215.0
2014-Jul-16 18:33N 38°35' E 000°22'1515.3
2014-Jul-16 17:33N 38°22' E 000°11'1615.7
2014-Jul-16 16:30N 38°09' W 000°01'1515.4
2014-Jul-16 15:33N 37°56' W 000°11'2220.5
2014-Jul-16 14:29N 37°38' W 000°27'11314.2
2014-Jul-16 06:33N 36°23' W 002°12'1614.6
2014-Jul-16 05:27N 36°20' W 002°31'17916.5
2014-Jul-15 18:33N 35°54' W 006°11'1716.3
2014-Jul-15 17:32N 35°58' W 006°31'1515.4
2014-Jul-15 16:33N 36°02' W 006°49'1514.9
2014-Jul-15 15:33N 36°06' W 007°07'1515.3
2014-Jul-15 14:33N 36°10' W 007°25'1515.5
2014-Jul-15 13:33N 36°14' W 007°43'1615.7
2014-Jul-15 12:33N 36°18' W 008°02'1815.6
2014-Jul-15 11:24N 36°22' W 008°24'1415.9
2014-Jul-15 10:33N 36°26' W 008°40'1616.6
2014-Jul-15 09:34N 36°30' W 008°60'1815.5
2014-Jul-15 08:24N 36°36' W 009°21'1415.5
2014-Jul-15 07:28N 36°47' W 009°32'1914.9
2014-Jul-15 06:11N 37°07' W 009°35'1015.8
2014-Jul-15 05:33N 37°16' W 009°31'1615.7
2014-Jul-15 04:33N 37°31' W 009°24'1515.4
2014-Jul-15 03:33N 37°45' W 009°18'1515.0
2014-Jul-15 02:33N 37°59' W 009°12'1515.1
2014-Jul-15 01:33N 38°13' W 009°05'1414.1
2014-Jul-15 00:33N 38°27' W 008°59'6 6.3
2014-Jul-14 23:31N 38°31' W 008°52'0 0.0
2014-Jul-14 22:31N 38°31' W 008°52'0 0.0
2014-Jul-14 21:31N 38°31' W 008°52'0 0.0
2014-Jul-14 20:31N 38°31' W 008°52'0 0.0
2014-Jul-14 19:31N 38°31' W 008°52'0 0.0
2014-Jul-14 18:31N 38°31' W 008°52'0 0.0
2014-Jul-14 17:25N 38°31' W 008°52'0 0.0
2014-Jul-14 16:31N 38°31' W 008°52'0 0.0
2014-Jul-14 15:31N 38°31' W 008°52'3 3.1
2014-Jul-14 14:33N 38°30' W 008°56'1313.3
2014-Jul-14 13:33N 38°20' W 009°07'1514.8
2014-Jul-14 12:33N 38°17' W 009°25'1514.6
2014-Jul-14 11:33N 38°22' W 009°43'2114.4
2014-Jul-14 10:07N 38°34' W 010°04'5715.2
2014-Jul-14 06:22N 39°31' W 010°08'  

Dump ship's entire track history